createdAt,value
2018-08-18T00:01:30.536Z,20.58
2018-08-18T00:03:58.076Z,20.52
2018-08-18T00:06:25.215Z,20.43
2018-08-18T00:08:52.476Z,20.58
2018-08-18T00:11:19.924Z,20.54
2018-08-18T00:13:53.732Z,20.59
2018-08-18T00:16:24.901Z,20.59
2018-08-18T00:19:00.857Z,20.57
2018-08-18T00:21:29.644Z,20.63
2018-08-18T00:24:12.793Z,20.75
2018-08-18T00:26:39.987Z,20.79
2018-08-18T00:29:08.435Z,20.80
2018-08-18T00:31:37.567Z,20.72
2018-08-18T00:34:04.745Z,20.71
2018-08-18T00:36:31.935Z,20.27
2018-08-18T00:39:00.070Z,19.91
2018-08-18T00:41:28.697Z,20.03
2018-08-18T00:43:56.660Z,20.15
2018-08-18T00:46:25.398Z,20.26
2018-08-18T00:48:52.511Z,20.00
2018-08-18T00:51:22.150Z,19.40
2018-08-18T00:53:49.244Z,19.61
2018-08-18T00:56:16.344Z,19.70
2018-08-18T00:58:53.167Z,19.81
2018-08-18T01:01:20.337Z,19.93
2018-08-18T01:03:54.024Z,20.00
2018-08-18T01:06:38.726Z,19.91
2018-08-18T01:09:10.760Z,19.72
2018-08-18T01:11:38.174Z,19.56
2018-08-18T01:14:13.200Z,19.38
2018-08-18T01:16:46.009Z,19.56
2018-08-18T01:19:13.177Z,19.30
2018-08-18T01:21:44.891Z,19.28
2018-08-18T01:24:12.153Z,19.30
2018-08-18T01:26:39.340Z,19.27
2018-08-18T01:29:12.867Z,19.41
2018-08-18T01:31:40.032Z,19.34
2018-08-18T01:34:07.450Z,18.97
2018-08-18T01:36:34.564Z,19.27
2018-08-18T01:39:01.737Z,19.20
2018-08-18T01:41:28.952Z,19.24
2018-08-18T01:44:12.479Z,19.19
2018-08-18T01:46:40.106Z,19.23
2018-08-18T01:49:22.058Z,19.24
2018-08-18T01:51:49.181Z,19.32
2018-08-18T01:54:16.816Z,19.34
2018-08-18T01:56:44.836Z,19.40
2018-08-18T01:59:11.950Z,19.13
2018-08-18T02:01:39.076Z,19.11
2018-08-18T02:04:06.579Z,19.23
2018-08-18T02:06:33.764Z,19.19
2018-08-18T02:09:00.919Z,19.17
2018-08-18T02:11:28.104Z,18.92
2018-08-18T02:13:56.025Z,19.04
2018-08-18T02:16:25.219Z,19.07
2018-08-18T02:18:52.401Z,19.11
2018-08-18T02:21:27.333Z,19.19
2018-08-18T02:23:54.608Z,19.25
2018-08-18T02:26:21.729Z,18.70
2018-08-18T02:28:48.864Z,18.70
2018-08-18T02:31:16.012Z,18.95
2018-08-18T02:33:43.121Z,18.69
2018-08-18T02:36:10.293Z,18.70
2018-08-18T02:38:40.069Z,18.80
2018-08-18T02:41:07.265Z,19.02
2018-08-18T02:43:34.429Z,19.00
2018-08-18T02:46:16.404Z,19.06
2018-08-18T02:48:43.571Z,18.97
2018-08-18T02:51:10.665Z,18.81
2018-08-18T02:53:37.867Z,18.90
2018-08-18T02:56:05.047Z,18.20
2018-08-18T02:58:32.157Z,18.40
2018-08-18T03:00:59.265Z,18.38
2018-08-18T03:03:26.416Z,18.67
2018-08-18T03:05:57.187Z,18.64
2018-08-18T03:08:24.308Z,18.64
2018-08-18T03:10:51.455Z,18.41
2018-08-18T03:13:18.580Z,18.58
2018-08-18T03:15:52.503Z,18.68
2018-08-18T03:18:31.649Z,18.81
2018-08-18T03:20:59.694Z,18.69
2018-08-18T03:23:34.219Z,18.63
2018-08-18T03:26:01.428Z,18.48
2018-08-18T03:28:30.958Z,18.60
2018-08-18T03:30:58.089Z,18.69
2018-08-18T03:33:25.267Z,18.77
2018-08-18T03:35:52.456Z,18.80
2018-08-18T03:38:19.581Z,18.78
2018-08-18T03:40:46.671Z,18.93
2018-08-18T03:43:13.758Z,18.67
2018-08-18T03:45:40.925Z,18.58
2018-08-18T03:48:08.181Z,18.64
2018-08-18T03:50:46.405Z,18.51
2018-08-18T03:53:18.134Z,18.62
2018-08-18T03:55:45.323Z,18.61
2018-08-18T03:58:12.538Z,18.58
2018-08-18T04:00:40.260Z,18.58
2018-08-18T04:03:07.439Z,18.55
2018-08-18T04:05:34.557Z,18.61
2018-08-18T04:08:01.700Z,18.67
2018-08-18T04:10:28.849Z,18.70
2018-08-18T04:12:57.789Z,18.90
2018-08-18T04:15:24.952Z,18.79
2018-08-18T04:17:52.083Z,18.77
2018-08-18T04:20:19.225Z,18.88
2018-08-18T04:22:46.340Z,18.97
2018-08-18T04:25:13.515Z,19.00
2018-08-18T04:27:44.178Z,18.92
2018-08-18T04:30:13.395Z,18.98
2018-08-18T04:32:49.883Z,19.08
2018-08-18T04:35:18.234Z,19.12
2018-08-18T04:37:45.273Z,19.24
2018-08-18T04:40:12.414Z,19.41
2018-08-18T04:42:40.271Z,19.32
2018-08-18T04:45:07.391Z,19.46
2018-08-18T04:47:34.583Z,19.37
2018-08-18T04:50:02.296Z,19.16
2018-08-18T04:52:29.400Z,19.16
2018-08-18T04:54:56.536Z,19.29
2018-08-18T04:57:23.691Z,19.13
2018-08-18T04:59:50.883Z,19.27
2018-08-18T05:02:18.044Z,19.20
2018-08-18T05:04:45.161Z,19.41
2018-08-18T05:07:12.277Z,19.19
2018-08-18T05:09:39.385Z,19.16
2018-08-18T05:12:06.555Z,19.11
2018-08-18T05:14:33.704Z,19.16
2018-08-18T05:17:00.824Z,19.24
2018-08-18T05:19:27.968Z,19.19
2018-08-18T05:24:30.292Z,19.28
2018-08-18T05:26:59.057Z,19.40
2018-08-18T05:29:26.207Z,19.40
2018-08-18T05:31:53.335Z,19.53
2018-08-18T05:34:20.516Z,19.46
2018-08-18T05:36:47.628Z,19.29
2018-08-18T05:39:14.803Z,19.27
2018-08-18T05:41:41.985Z,19.26
2018-08-18T05:44:09.114Z,19.35
2018-08-18T05:46:36.283Z,19.08
2018-08-18T05:49:18.557Z,18.90
2018-08-18T05:51:48.010Z,19.09
2018-08-18T05:54:30.176Z,19.26
2018-08-18T05:56:57.293Z,19.40
2018-08-18T05:59:24.428Z,19.70
2018-08-18T06:01:51.656Z,19.61
2018-08-18T06:04:20.131Z,19.81
2018-08-18T06:06:47.904Z,19.85
2018-08-18T06:09:16.303Z,19.43
2018-08-18T06:11:43.572Z,19.24
2018-08-18T06:14:11.502Z,19.23
2018-08-18T06:16:38.980Z,19.18
2018-08-18T06:19:06.262Z,19.32
2018-08-18T06:21:33.454Z,19.58
2018-08-18T06:24:00.605Z,19.59
2018-08-18T06:26:27.806Z,19.64
2018-08-18T06:28:55.352Z,19.72
2018-08-18T06:31:22.568Z,19.97
2018-08-18T06:33:49.713Z,20.31
2018-08-18T06:36:16.843Z,20.60
2018-08-18T06:38:44.003Z,20.76
2018-08-18T06:41:11.251Z,20.82
2018-08-18T06:43:38.346Z,21.24
2018-08-18T06:46:05.530Z,21.32
2018-08-18T06:48:36.678Z,21.38
2018-08-18T06:51:03.989Z,21.22
2018-08-18T06:53:36.948Z,21.52
2018-08-18T06:56:04.102Z,21.49
2018-08-18T06:58:31.302Z,21.96
2018-08-18T07:00:58.564Z,22.24
2018-08-18T07:03:33.672Z,22.16
2018-08-18T07:06:01.526Z,22.04
2018-08-18T07:08:28.982Z,22.25
2018-08-18T07:10:56.113Z,22.56
2018-08-18T07:13:23.377Z,22.25
2018-08-18T07:15:50.511Z,22.69
2018-08-18T07:18:17.712Z,22.65
2018-08-18T07:20:44.844Z,22.71
2018-08-18T07:23:12.060Z,22.57
2018-08-18T07:25:45.961Z,23.00
2018-08-18T07:28:13.240Z,23.32
2018-08-18T07:30:40.433Z,23.57
2018-08-18T07:33:07.622Z,23.52
2018-08-18T07:35:34.780Z,23.28
2018-08-18T07:38:01.997Z,23.57
2018-08-18T07:40:36.624Z,23.94
2018-08-18T07:43:05.204Z,23.96
2018-08-18T07:45:32.908Z,23.79
2018-08-18T07:48:00.179Z,24.54
2018-08-18T07:50:27.375Z,24.95
2018-08-18T07:52:54.737Z,24.93
2018-08-18T07:55:21.880Z,24.95
2018-08-18T07:57:54.685Z,24.58
2018-08-18T08:00:21.900Z,25.27
2018-08-18T08:02:49.049Z,25.34
2018-08-18T08:05:17.124Z,25.80
2018-08-18T08:07:44.253Z,26.08
2018-08-18T08:10:11.440Z,26.32
2018-08-18T08:12:38.755Z,26.50
2018-08-18T08:15:05.828Z,26.33
2018-08-18T08:17:33.016Z,26.22
2018-08-18T08:20:00.284Z,26.35
2018-08-18T08:22:27.423Z,25.48
2018-08-18T08:24:54.613Z,25.62
2018-08-18T08:27:21.872Z,26.01
2018-08-18T08:29:49.013Z,26.49
2018-08-18T08:32:16.323Z,26.28
2018-08-18T08:34:46.399Z,26.71
2018-08-18T08:37:14.818Z,26.68
2018-08-18T08:39:42.513Z,27.14
2018-08-18T08:42:09.675Z,26.81
2018-08-18T08:44:36.852Z,26.08
2018-08-18T08:47:06.998Z,26.61
2018-08-18T08:49:34.165Z,26.94
2018-08-18T08:52:01.325Z,26.87
2018-08-18T08:54:30.455Z,27.07
2018-08-18T08:56:57.630Z,26.65
2018-08-18T08:59:24.752Z,26.73
2018-08-18T09:01:51.904Z,26.84
2018-08-18T09:04:19.152Z,27.31
2018-08-18T09:06:52.784Z,27.22
2018-08-18T09:09:20.376Z,27.31
2018-08-18T09:11:47.750Z,27.48
2018-08-18T09:14:14.917Z,27.56
2018-08-18T09:16:42.085Z,27.75
2018-08-18T09:19:09.282Z,27.26
2018-08-18T09:21:42.240Z,27.11
2018-08-18T09:24:09.412Z,27.19
2018-08-18T09:26:42.350Z,27.09
2018-08-18T09:29:09.813Z,27.53
2018-08-18T09:31:37.036Z,27.34
2018-08-18T09:34:04.164Z,27.49
2018-08-18T09:36:31.312Z,27.68
2018-08-18T09:38:58.480Z,27.47
2018-08-18T09:41:25.565Z,27.44
2018-08-18T09:43:52.718Z,27.80
2018-08-18T09:46:19.899Z,27.53
2018-08-18T09:48:47.661Z,27.45
2018-08-18T09:51:14.803Z,27.83
2018-08-18T09:53:41.968Z,27.14
2018-08-18T09:56:09.146Z,26.83
2018-08-18T09:58:36.507Z,26.99
2018-08-18T10:01:03.751Z,27.70
2018-08-18T10:03:31.286Z,28.09
2018-08-18T10:05:58.650Z,28.09
2018-08-18T10:08:25.856Z,27.81
2018-08-18T10:10:53.041Z,27.96
2018-08-18T10:13:20.243Z,28.11
2018-08-18T10:15:47.476Z,28.22
2018-08-18T10:18:14.640Z,28.23
2018-08-18T10:20:47.520Z,27.96
2018-08-18T10:23:14.673Z,27.73
2018-08-18T10:25:41.825Z,27.98
2018-08-18T10:28:09.407Z,27.63
2018-08-18T10:30:36.556Z,27.70
2018-08-18T10:33:04.076Z,28.14
2018-08-18T10:35:31.549Z,28.38
2018-08-18T10:38:00.173Z,28.23
2018-08-18T10:40:27.327Z,28.21
2018-08-18T10:42:55.097Z,28.40
2018-08-18T10:45:22.259Z,28.22
2018-08-18T10:47:49.374Z,29.09
2018-08-18T10:51:26.694Z,29.18
2018-08-18T10:53:54.167Z,28.84
2018-08-18T10:56:21.744Z,29.25
2018-08-18T10:59:05.750Z,29.52
2018-08-18T11:01:33.133Z,29.75
2018-08-18T11:04:00.554Z,29.97
2018-08-18T11:06:32.268Z,30.08
2018-08-18T11:08:59.537Z,30.13
2018-08-18T11:11:26.721Z,29.72
2018-08-18T11:13:54.876Z,29.98
2018-08-18T11:16:22.088Z,30.32
2018-08-18T11:18:49.367Z,30.77
2018-08-18T11:21:18.139Z,30.77
2018-08-18T11:23:45.394Z,30.62
2018-08-18T11:26:12.628Z,30.55
2018-08-18T11:28:39.940Z,30.34
2018-08-18T11:31:06.919Z,30.98
2018-08-18T11:33:42.323Z,31.15
2018-08-18T11:36:10.360Z,30.55
2018-08-18T11:38:37.559Z,30.90
2018-08-18T11:41:04.795Z,30.84
2018-08-18T11:43:34.697Z,31.11
2018-08-18T11:46:04.171Z,31.28
2018-08-18T11:48:31.372Z,31.85
2018-08-18T11:50:58.453Z,31.94
2018-08-18T11:53:25.564Z,31.76
2018-08-18T11:55:52.713Z,32.21
2018-08-18T11:58:21.014Z,31.87
2018-08-18T12:00:50.443Z,32.46
2018-08-18T12:03:20.258Z,33.13
2018-08-18T12:05:49.517Z,33.40
2018-08-18T12:08:20.037Z,33.14
2018-08-18T12:10:48.454Z,32.55
2018-08-18T12:13:15.769Z,30.71
2018-08-18T12:15:56.997Z,30.13
2018-08-18T12:18:26.061Z,30.18
2018-08-18T12:20:54.839Z,31.30
2018-08-18T12:23:22.021Z,31.21
2018-08-18T12:25:54.886Z,30.48
2018-08-18T12:28:24.171Z,30.81
2018-08-18T12:30:51.313Z,30.66
2018-08-18T12:33:19.211Z,31.70
2018-08-18T12:35:47.565Z,32.29
2018-08-18T12:38:14.871Z,31.38
2018-08-18T12:40:42.063Z,31.11
2018-08-18T12:43:09.252Z,32.56
2018-08-18T12:45:36.648Z,31.28
2018-08-18T12:48:05.953Z,30.37
2018-08-18T12:50:33.263Z,30.01
2018-08-18T12:53:00.465Z,30.24
2018-08-18T12:55:27.673Z,30.01
2018-08-18T12:57:55.572Z,30.85
2018-08-18T13:00:22.912Z,30.93
2018-08-18T13:02:51.965Z,31.70
2018-08-18T13:05:21.783Z,32.66
2018-08-18T13:07:48.978Z,32.39
2018-08-18T13:10:21.244Z,32.56
2018-08-18T13:12:49.216Z,32.46
2018-08-18T13:15:16.716Z,32.38
2018-08-18T13:17:43.969Z,32.36
2018-08-18T13:20:13.184Z,31.20
2018-08-18T13:22:40.354Z,30.69
2018-08-18T13:25:07.510Z,31.66
2018-08-18T13:27:39.465Z,32.58
2018-08-18T13:30:06.661Z,32.69
2018-08-18T13:32:33.813Z,31.35
2018-08-18T13:35:00.970Z,31.95
2018-08-18T13:37:28.163Z,33.10
2018-08-18T13:39:55.341Z,32.68
2018-08-18T13:42:24.265Z,31.54
2018-08-18T13:44:52.080Z,32.54
2018-08-18T13:47:19.367Z,32.24
2018-08-18T13:49:49.828Z,32.53
2018-08-18T13:52:17.020Z,32.86
2018-08-18T13:54:49.952Z,32.46
2018-08-18T13:57:21.726Z,32.69
2018-08-18T13:59:48.889Z,32.27
2018-08-18T14:02:16.091Z,32.42
2018-08-18T14:04:43.509Z,32.53
2018-08-18T14:07:10.991Z,32.86
2018-08-18T14:09:43.100Z,33.84
2018-08-18T14:12:16.766Z,33.88
2018-08-18T14:14:44.629Z,33.55
2018-08-18T14:17:12.684Z,33.55
2018-08-18T14:19:39.841Z,34.31
2018-08-18T14:22:08.571Z,32.59
2018-08-18T14:24:36.913Z,32.72
2018-08-18T14:27:07.492Z,32.96
2018-08-18T14:29:34.690Z,33.07
2018-08-18T14:32:04.320Z,32.86
2018-08-18T14:34:31.451Z,32.41
2018-08-18T14:37:04.189Z,31.43
2018-08-18T14:39:35.663Z,30.18
2018-08-18T14:42:02.846Z,30.24
2018-08-18T14:44:30.120Z,30.42
2018-08-18T14:46:57.310Z,31.29
2018-08-18T14:49:24.457Z,31.21
2018-08-18T14:51:51.648Z,31.90
2018-08-18T14:54:22.946Z,31.55
2018-08-18T14:56:50.096Z,31.99
2018-08-18T14:59:17.279Z,31.96
2018-08-18T15:01:44.454Z,32.01
2018-08-18T15:04:11.584Z,32.60
2018-08-18T15:06:38.752Z,31.87
2018-08-18T15:09:05.898Z,31.36
2018-08-18T15:11:33.192Z,31.03
2018-08-18T15:14:00.483Z,31.04
2018-08-18T15:16:27.636Z,31.02
2018-08-18T15:18:54.780Z,30.82
2018-08-18T15:21:21.940Z,30.57
2018-08-18T15:23:49.080Z,30.35
2018-08-18T15:26:16.196Z,30.20
2018-08-18T15:28:43.349Z,30.43
2018-08-18T15:31:10.488Z,30.79
2018-08-18T15:33:37.617Z,31.14
2018-08-18T15:36:15.028Z,31.08
2018-08-18T15:38:43.623Z,31.52
2018-08-18T15:41:11.194Z,30.54
2018-08-18T15:43:38.803Z,30.03
2018-08-18T15:46:06.075Z,30.13
2018-08-18T15:48:33.800Z,30.31
2018-08-18T15:51:00.957Z,29.95
2018-08-18T15:53:40.224Z,30.12
2018-08-18T15:56:07.520Z,29.85
2018-08-18T15:58:34.654Z,29.48
2018-08-18T16:01:01.884Z,29.60
2018-08-18T16:03:29.001Z,29.75
2018-08-18T16:05:56.121Z,29.64
2018-08-18T16:08:23.263Z,29.86
2018-08-18T16:10:50.423Z,30.15
2018-08-18T16:13:17.589Z,30.20
2018-08-18T16:15:44.896Z,30.25
2018-08-18T16:18:12.060Z,30.68
2018-08-18T16:20:39.220Z,30.67
2018-08-18T16:23:10.984Z,30.41
2018-08-18T16:25:39.247Z,30.07
2018-08-18T16:28:08.159Z,29.66
2018-08-18T16:30:36.288Z,29.63
2018-08-18T16:33:19.348Z,29.35
2018-08-18T16:35:46.654Z,29.69
2018-08-18T16:38:13.867Z,30.11
2018-08-18T16:40:41.138Z,29.79
2018-08-18T16:43:09.929Z,29.68
2018-08-18T16:45:37.164Z,29.34
2018-08-18T16:48:05.270Z,29.40
2018-08-18T16:50:33.208Z,29.45
2018-08-18T16:53:01.967Z,29.37
2018-08-18T16:55:30.146Z,29.34
2018-08-18T16:57:57.370Z,29.47
2018-08-18T17:00:24.612Z,29.25
2018-08-18T17:02:51.767Z,29.46
2018-08-18T17:05:18.911Z,28.97
2018-08-18T17:07:46.063Z,28.65
2018-08-18T17:10:13.324Z,28.32
2018-08-18T17:12:40.444Z,28.37
2018-08-18T17:15:07.929Z,28.38
2018-08-18T17:17:35.105Z,28.49
2018-08-18T17:20:02.444Z,28.49
2018-08-18T17:22:29.628Z,27.92
2018-08-18T17:24:56.796Z,28.08
2018-08-18T17:27:26.579Z,27.61
2018-08-18T17:29:53.756Z,27.62
2018-08-18T17:32:20.917Z,27.33
2018-08-18T17:34:48.077Z,26.79
2018-08-18T17:37:15.261Z,26.06
2018-08-18T17:39:42.534Z,25.95
2018-08-18T17:42:09.661Z,25.56
2018-08-18T17:44:36.820Z,25.13
2018-08-18T17:47:07.240Z,25.09
2018-08-18T17:49:43.396Z,25.29
2018-08-18T17:52:11.079Z,25.29
2018-08-18T17:54:38.770Z,25.28
2018-08-18T17:57:06.452Z,25.08
2018-08-18T17:59:34.207Z,24.80
2018-08-18T18:02:10.660Z,24.74
2018-08-18T18:04:38.023Z,24.45
2018-08-18T18:07:05.505Z,24.13
2018-08-18T18:09:33.732Z,24.25
2018-08-18T18:12:30.576Z,24.53
2018-08-18T18:14:57.853Z,24.70
2018-08-18T18:17:25.583Z,24.67
2018-08-18T18:19:55.609Z,24.58
2018-08-18T18:22:22.740Z,24.11
2018-08-18T18:24:50.112Z,23.78
2018-08-18T18:27:17.659Z,23.65
2018-08-18T18:29:45.080Z,23.99
2018-08-18T18:32:13.019Z,23.77
2018-08-18T18:34:40.909Z,23.91
2018-08-18T18:37:08.171Z,24.05
2018-08-18T18:39:54.186Z,23.78
2018-08-18T18:42:21.419Z,24.08
2018-08-18T18:44:49.013Z,23.75
2018-08-18T18:47:16.294Z,23.27
2018-08-18T18:49:43.467Z,23.41
2018-08-18T18:52:11.031Z,23.22
2018-08-18T18:54:38.247Z,23.26
2018-08-18T18:57:05.925Z,23.36
2018-08-18T18:59:36.141Z,23.53
2018-08-18T19:02:03.363Z,23.54
2018-08-18T19:04:30.529Z,23.75
2018-08-18T19:07:01.285Z,23.26
2018-08-18T19:09:28.550Z,22.84
2018-08-18T19:11:55.764Z,22.95
2018-08-18T19:14:22.993Z,22.75
2018-08-18T19:16:50.596Z,22.57
2018-08-18T19:19:18.637Z,22.53
2018-08-18T19:21:45.822Z,22.52
2018-08-18T19:24:20.489Z,22.13
2018-08-18T19:26:51.468Z,22.15
2018-08-18T19:29:20.363Z,22.47
2018-08-18T19:31:54.541Z,22.57
2018-08-18T19:34:21.841Z,22.19
2018-08-18T19:37:03.054Z,22.63
2018-08-18T19:39:31.568Z,22.92
2018-08-18T19:42:05.438Z,22.99
2018-08-18T19:44:35.489Z,22.54
2018-08-18T19:47:02.658Z,22.64
2018-08-18T19:49:41.551Z,22.69
2018-08-18T19:52:12.280Z,22.73
2018-08-18T19:54:44.531Z,22.49
2018-08-18T19:57:12.044Z,22.21
2018-08-18T19:59:39.494Z,22.24
2018-08-18T20:02:07.024Z,22.42
2018-08-18T20:04:34.232Z,22.53
2018-08-18T20:07:01.458Z,22.47
2018-08-18T20:09:28.648Z,22.69
2018-08-18T20:11:56.073Z,22.64
2018-08-18T20:14:23.308Z,22.62
2018-08-18T20:16:50.961Z,22.37
2018-08-18T20:19:19.679Z,22.09
2018-08-18T20:21:47.328Z,21.97
2018-08-18T20:24:15.007Z,21.33
2018-08-18T20:26:42.575Z,21.56
2018-08-18T20:29:10.266Z,21.52
2018-08-18T20:31:42.090Z,21.71
2018-08-18T20:34:09.299Z,21.99
2018-08-18T20:36:36.529Z,22.05
2018-08-18T20:39:06.584Z,21.83
2018-08-18T20:41:33.792Z,21.93
2018-08-18T20:44:01.166Z,22.00
2018-08-18T20:46:28.884Z,21.43
2018-08-18T20:48:56.243Z,21.21
2018-08-18T20:51:29.437Z,20.96
2018-08-18T20:53:56.712Z,21.02
2018-08-18T20:56:23.874Z,21.28
2018-08-18T20:58:51.107Z,21.00
2018-08-18T21:01:18.777Z,21.27
2018-08-18T21:03:49.371Z,20.86
2018-08-18T21:06:18.272Z,20.80
2018-08-18T21:08:46.421Z,21.25
2018-08-18T21:11:14.727Z,20.64
2018-08-18T21:13:46.273Z,20.36
2018-08-18T21:16:14.557Z,20.58
2018-08-18T21:18:42.371Z,20.68
2018-08-18T21:21:29.942Z,21.00
2018-08-18T21:23:57.265Z,21.20
2018-08-18T21:26:24.459Z,21.31
2018-08-18T21:28:53.603Z,21.19
2018-08-18T21:31:27.138Z,21.26
2018-08-18T21:33:55.548Z,21.16
2018-08-18T21:36:22.812Z,21.00
2018-08-18T21:38:49.941Z,20.83
2018-08-18T21:41:17.359Z,20.92
2018-08-18T21:43:45.179Z,21.03
2018-08-18T21:46:12.439Z,21.01
2018-08-18T21:48:50.112Z,21.02
2018-08-18T21:51:19.715Z,20.57
2018-08-18T21:53:47.851Z,20.44
2018-08-18T21:56:15.044Z,20.03
2018-08-18T21:58:42.333Z,19.96
2018-08-18T22:01:15.187Z,20.33
2018-08-18T22:03:42.538Z,20.59
2018-08-18T22:06:09.700Z,20.85
2018-08-18T22:08:36.837Z,21.13
2018-08-18T22:11:04.236Z,20.56
2018-08-18T22:13:35.860Z,20.06
2018-08-18T22:16:03.217Z,20.25
2018-08-18T22:18:30.364Z,20.10
2018-08-18T22:20:57.499Z,20.19
2018-08-18T22:25:59.352Z,20.46
2018-08-18T22:28:26.492Z,20.28
2018-08-18T22:30:54.628Z,20.10
2018-08-18T22:33:21.825Z,20.31
2018-08-18T22:35:53.521Z,20.54
2018-08-18T22:38:20.664Z,20.57
2018-08-18T22:40:47.814Z,20.58
2018-08-18T22:43:15.660Z,20.45
2018-08-18T22:45:42.800Z,20.55
2018-08-18T22:48:10.296Z,19.86
2018-08-18T22:50:37.467Z,19.86
2018-08-18T22:53:04.633Z,20.13
2018-08-18T22:55:31.740Z,19.99
2018-08-18T22:58:00.934Z,20.14
2018-08-18T23:00:28.275Z,20.05
2018-08-18T23:02:55.512Z,20.11
2018-08-18T23:05:22.685Z,20.36
2018-08-18T23:07:52.227Z,20.33
2018-08-18T23:10:19.428Z,20.40
2018-08-18T23:12:46.579Z,20.54
2018-08-18T23:15:13.756Z,20.35
2018-08-18T23:17:40.885Z,20.25
2018-08-18T23:20:08.063Z,20.33
2018-08-18T23:22:52.292Z,20.28
2018-08-18T23:25:19.716Z,20.00
2018-08-18T23:27:46.973Z,19.65
2018-08-18T23:30:16.361Z,19.55
2018-08-18T23:32:43.508Z,19.46
2018-08-18T23:35:10.735Z,19.85
2018-08-18T23:37:37.949Z,19.55
2018-08-18T23:40:05.075Z,19.75
2018-08-18T23:42:32.258Z,19.69
2018-08-18T23:47:33.572Z,20.17
2018-08-18T23:50:00.724Z,19.99
2018-08-18T23:52:27.846Z,19.69
2018-08-18T23:54:54.973Z,19.57
2018-08-18T23:57:22.116Z,19.36
2018-08-18T23:59:49.689Z,19.77
